Time;durP1;ratioP1;P1;durP2;ratioP2;P2;SDS_P1;SDS_P2;PMS_P1;PMS_P2;Temp;Humidity;BMP_temperature;BMP_pressure;BME280_temperature;BME280_humidity;BME280_pressure;Samples;Min_cycle;Max_cycle;Signal;HPM_P1;HPM_P2
2023/03/22 00:04:15;;;;;;;17.08;10.60;;;;;;;;;;10397238;28;20639;-69
2023/03/22 00:09:15;;;;;;;15.10;9.90;;;;;;;;;;10381329;28;20370;-70
2023/03/22 00:14:16;;;;;;;15.30;9.97;;;;;;;;;;10381538;28;20300;-69
2023/03/22 00:19:17;;;;;;;16.70;10.15;;;;;;;;;;10363424;28;20260;-69
2023/03/22 00:24:17;;;;;;;17.08;11.50;;;;;;;;;;10381463;28;20032;-69
2023/03/22 00:29:18;;;;;;;15.70;10.87;;;;;;;;;;10381032;28;20036;-69
2023/03/22 00:34:19;;;;;;;15.20;9.75;;;;;;;;;;10380937;28;20068;-69
2023/03/22 00:39:19;;;;;;;16.70;10.38;;;;;;;;;;10380900;28;20579;-69
2023/03/22 00:44:20;;;;;;;14.77;9.23;;;;;;;;;;10380472;28;20079;-69
2023/03/22 00:49:20;;;;;;;18.90;11.43;;;;;;;;;;10380200;28;20044;-70
2023/03/22 00:54:21;;;;;;;15.68;9.85;;;;;;;;;;10380436;28;20026;-69
2023/03/22 00:59:21;;;;;;;19.25;11.23;;;;;;;;;;10380534;28;20033;-69
2023/03/22 01:04:24;;;;;;;16.05;10.48;;;;;;;;;;10379943;28;20041;-69
2023/03/22 01:09:27;;;;;;;13.60;8.55;;;;;;;;;;10379772;28;20504;-69
2023/03/22 01:14:30;;;;;;;11.40;8.15;;;;;;;;;;10379515;28;20033;-69
2023/03/22 01:19:30;;;;;;;12.85;7.30;;;;;;;;;;10365459;28;20033;-70
2023/03/22 01:24:31;;;;;;;14.80;8.68;;;;;;;;;;10386968;28;20404;-69
2023/03/22 01:29:31;;;;;;;14.98;9.45;;;;;;;;;;10383417;28;20482;-69
2023/03/22 01:34:31;;;;;;;14.50;9.90;;;;;;;;;;10387709;28;20505;-70
2023/03/22 01:39:32;;;;;;;19.33;11.52;;;;;;;;;;10387014;28;20268;-70
2023/03/22 01:44:32;;;;;;;24.20;11.35;;;;;;;;;;10385251;28;20091;-70
2023/03/22 01:49:33;;;;;;;20.05;12.07;;;;;;;;;;10368529;28;20734;-70
2023/03/22 01:54:35;;;;;;;21.92;12.10;;;;;;;;;;10387980;28;20603;-70
2023/03/22 01:59:36;;;;;;;24.27;14.73;;;;;;;;;;10387012;28;20040;-70
2023/03/22 02:04:38;;;;;;;21.48;13.18;;;;;;;;;;10387051;28;20030;-70
2023/03/22 02:09:41;;;;;;;20.58;12.98;;;;;;;;;;10386388;28;20472;-69
2023/03/22 02:15:00;;;;;;;17.35;11.57;;;;;;;;;;10368797;28;20421;-68
2023/03/22 02:20:37;;;;;;;22.00;11.77;;;;;;;;;;10372383;28;20034;-68
2023/03/22 02:25:56;;;;;;;16.65;10.57;;;;;;;;;;10291040;28;20037;-70
2023/03/22 02:31:16;;;;;;;17.55;10.45;;;;;;;;;;10384913;28;20546;-70
2023/03/22 02:36:18;;;;;;;16.15;10.38;;;;;;;;;;10385759;28;20492;-70
2023/03/22 02:41:24;;;;;;;20.25;11.20;;;;;;;;;;10392975;28;20403;-70
2023/03/22 02:46:29;;;;;;;18.95;10.85;;;;;;;;;;10385251;28;20033;-70
2023/03/22 02:51:41;;;;;;;19.90;11.38;;;;;;;;;;10385109;28;20091;-70
2023/03/22 02:56:45;;;;;;;18.23;11.00;;;;;;;;;;10385114;28;20049;-70
2023/03/22 03:01:55;;;;;;;16.17;9.43;;;;;;;;;;10384576;28;20084;-70
2023/03/22 03:06:59;;;;;;;16.10;9.68;;;;;;;;;;10366084;28;20040;-70
2023/03/22 03:11:59;;;;;;;14.73;9.98;;;;;;;;;;10384407;28;20040;-70
2023/03/22 03:17:02;;;;;;;17.02;9.90;;;;;;;;;;10383704;28;20322;-70
2023/03/22 03:22:21;;;;;;;13.80;8.48;;;;;;;;;;10384138;28;20144;-70
2023/03/22 03:27:24;;;;;;;13.98;8.30;;;;;;;;;;10383571;28;20088;-70
2023/03/22 03:32:34;;;;;;;11.05;6.47;;;;;;;;;;10385284;28;20473;-70
2023/03/22 03:37:36;;;;;;;9.25;5.72;;;;;;;;;;10383540;28;20092;-70
2023/03/22 03:42:38;;;;;;;6.65;4.55;;;;;;;;;;10382794;28;20072;-70
2023/03/22 03:47:39;;;;;;;7.30;4.28;;;;;;;;;;10381657;28;20025;-70
2023/03/22 03:52:39;;;;;;;9.40;5.15;;;;;;;;;;10381778;28;20037;-70
2023/03/22 03:57:40;;;;;;;10.10;4.80;;;;;;;;;;10382510;28;20036;-69
2023/03/22 04:02:40;;;;;;;7.63;4.97;;;;;;;;;;10382617;28;20260;-68
2023/03/22 04:07:40;;;;;;;7.32;5.47;;;;;;;;;;10382079;28;20033;-69
2023/03/22 04:12:41;;;;;;;11.13;5.50;;;;;;;;;;10382402;28;20546;-69
2023/03/22 04:17:41;;;;;;;9.13;5.68;;;;;;;;;;10373076;28;20029;-69
2023/03/22 04:22:45;;;;;;;9.98;5.38;;;;;;;;;;10346518;28;20575;-68
2023/03/22 04:27:50;;;;;;;9.68;6.40;;;;;;;;;;10396548;28;20025;-69
2023/03/22 04:32:50;;;;;;;9.30;6.38;;;;;;;;;;10394618;28;20045;-70
2023/03/22 04:37:52;;;;;;;11.55;7.40;;;;;;;;;;10376191;28;20400;-69
2023/03/22 04:42:56;;;;;;;9.63;6.45;;;;;;;;;;10384677;28;20476;-69
2023/03/22 04:47:59;;;;;;;11.27;7.35;;;;;;;;;;10395619;28;20049;-69
2023/03/22 04:52:59;;;;;;;10.15;6.80;;;;;;;;;;10379557;28;20029;-70
2023/03/22 04:58:00;;;;;;;9.82;7.50;;;;;;;;;;10378353;28;20029;-68
2023/03/22 05:03:00;;;;;;;8.40;6.63;;;;;;;;;;10375961;28;20080;-67
2023/03/22 05:08:00;;;;;;;9.48;7.25;;;;;;;;;;10378747;28;20033;-69
2023/03/22 05:13:01;;;;;;;10.82;6.70;;;;;;;;;;10379173;28;20388;-68
2023/03/22 05:18:01;;;;;;;8.60;7.25;;;;;;;;;;10378479;28;20033;-70
2023/03/22 05:23:01;;;;;;;12.18;7.05;;;;;;;;;;10375917;28;20037;-70
2023/03/22 05:28:02;;;;;;;10.25;7.55;;;;;;;;;;10368282;28;20037;-69
2023/03/22 05:33:03;;;;;;;11.07;8.23;;;;;;;;;;10390005;28;20033;-69
2023/03/22 05:38:04;;;;;;;8.55;7.15;;;;;;;;;;10377354;28;20273;-68
2023/03/22 05:43:04;;;;;;;13.60;7.90;;;;;;;;;;10379038;28;20423;-69
2023/03/22 05:48:04;;;;;;;11.35;7.35;;;;;;;;;;10375866;28;20111;-70
2023/03/22 05:53:05;;;;;;;12.23;8.67;;;;;;;;;;10377025;28;20496;-69
2023/03/22 05:58:06;;;;;;;10.30;8.00;;;;;;;;;;10374295;28;20034;-69
2023/03/22 06:03:06;;;;;;;12.43;9.23;;;;;;;;;;10351607;28;20448;-69
2023/03/22 06:08:06;;;;;;;14.68;9.35;;;;;;;;;;10339701;28;20040;-69
2023/03/22 06:13:07;;;;;;;13.10;8.70;;;;;;;;;;10359968;28;20095;-70
2023/03/22 06:18:07;;;;;;;11.52;9.05;;;;;;;;;;10386314;28;20052;-70
2023/03/22 06:23:07;;;;;;;14.43;9.40;;;;;;;;;;10378741;28;20511;-70
2023/03/22 06:28:08;;;;;;;15.60;9.17;;;;;;;;;;10369858;28;20041;-69
2023/03/22 06:33:08;;;;;;;15.75;10.15;;;;;;;;;;10384606;28;20451;-70
2023/03/22 06:38:08;;;;;;;15.88;9.98;;;;;;;;;;10344565;28;20408;-70
2023/03/22 06:43:09;;;;;;;18.20;10.68;;;;;;;;;;10374794;28;20474;-69
2023/03/22 06:48:09;;;;;;;20.33;12.10;;;;;;;;;;10382906;28;20061;-71
2023/03/22 06:53:09;;;;;;;16.33;9.80;;;;;;;;;;10374563;28;20026;-70
2023/03/22 06:58:10;;;;;;;14.63;11.30;;;;;;;;;;10348328;28;20072;-70
2023/03/22 07:03:10;;;;;;;16.27;10.90;;;;;;;;;;10384575;28;20276;-70
2023/03/22 07:08:10;;;;;;;13.80;9.70;;;;;;;;;;10384050;28;20041;-70
2023/03/22 07:13:11;;;;;;;9.82;7.18;;;;;;;;;;10384337;28;20022;-71
2023/03/22 07:18:11;;;;;;;11.07;7.85;;;;;;;;;;10383393;28;20029;-69
2023/03/22 07:23:12;;;;;;;10.23;7.40;;;;;;;;;;10366030;28;20818;-69
2023/03/22 07:28:13;;;;;;;8.80;6.45;;;;;;;;;;10383421;28;20448;-70
2023/03/22 07:33:13;;;;;;;9.60;6.45;;;;;;;;;;10382754;28;20140;-68
2023/03/22 07:38:13;;;;;;;9.50;6.28;;;;;;;;;;10382682;28;20038;-70
2023/03/22 07:43:14;;;;;;;10.52;7.10;;;;;;;;;;10382882;28;20037;-69
2023/03/22 07:48:14;;;;;;;14.30;8.05;;;;;;;;;;10382805;28;20032;-69
2023/03/22 07:53:14;;;;;;;14.95;8.02;;;;;;;;;;10382968;28;20030;-69
2023/03/22 07:58:15;;;;;;;13.13;7.50;;;;;;;;;;10381270;28;20030;-69
2023/03/22 08:03:15;;;;;;;14.50;9.80;;;;;;;;;;10382266;28;20144;-70
2023/03/22 08:08:15;;;;;;;16.80;9.00;;;;;;;;;;10381820;28;20284;-70
2023/03/22 08:13:16;;;;;;;12.33;9.83;;;;;;;;;;10382311;28;20026;-69
2023/03/22 08:18:16;;;;;;;12.93;9.10;;;;;;;;;;10382263;28;20179;-70
2023/03/22 08:23:16;;;;;;;19.77;10.77;;;;;;;;;;10381321;28;20441;-69
2023/03/22 08:28:17;;;;;;;16.60;10.63;;;;;;;;;;10381276;28;20041;-70
2023/03/22 08:33:20;;;;;;;16.00;8.40;;;;;;;;;;10380905;28;20041;-69
2023/03/22 08:38:21;;;;;;;22.85;10.23;;;;;;;;;;10381390;28;20040;-69
2023/03/22 08:43:21;;;;;;;17.17;8.50;;;;;;;;;;10381168;28;20057;-70
2023/03/22 08:48:21;;;;;;;14.03;9.43;;;;;;;;;;10380825;28;20037;-70
2023/03/22 08:53:21;;;;;;;15.33;8.90;;;;;;;;;;10381280;28;20088;-70
2023/03/22 08:58:22;;;;;;;12.93;8.93;;;;;;;;;;10380723;28;20029;-70
2023/03/22 09:03:23;;;;;;;12.27;9.18;;;;;;;;;;10380699;28;20033;-70
2023/03/22 09:08:24;;;;;;;22.30;10.65;;;;;;;;;;10380189;28;20051;-69
2023/03/22 09:13:25;;;;;;;17.50;11.27;;;;;;;;;;10380317;28;20040;-69
2023/03/22 09:18:25;;;;;;;16.58;10.18;;;;;;;;;;10380445;28;20025;-69
2023/03/22 09:23:26;;;;;;;16.15;10.80;;;;;;;;;;10380505;28;20532;-69
2023/03/22 09:28:26;;;;;;;18.80;9.97;;;;;;;;;;10379791;28;20445;-70
2023/03/22 09:33:27;;;;;;;14.73;10.15;;;;;;;;;;10379314;28;20299;-70
2023/03/22 09:38:31;;;;;;;23.17;12.47;;;;;;;;;;10379914;28;20034;-70
2023/03/22 09:43:33;;;;;;;19.83;13.38;;;;;;;;;;10385428;28;20037;-70
2023/03/22 09:48:36;;;;;;;33.30;19.55;;;;;;;;;;10387960;28;20068;-70
2023/03/22 09:53:36;;;;;;;31.35;18.98;;;;;;;;;;10387132;28;20041;-70
2023/03/22 09:58:45;;;;;;;34.13;20.77;;;;;;;;;;10386286;28;20097;-69
2023/03/22 10:04:12;;;;;;;24.80;14.35;;;;;;;;;;10386998;28;20040;-69
2023/03/22 10:09:47;;;;;;;20.00;13.38;;;;;;;;;;10355668;28;20112;-70
2023/03/22 10:14:59;;;;;;;22.63;13.82;;;;;;;;;;10288998;28;20487;-69
2023/03/22 10:20:08;;;;;;;23.13;14.52;;;;;;;;;;10368616;28;20084;-69
2023/03/22 10:25:08;;;;;;;21.42;12.45;;;;;;;;;;10385890;28;20181;-70
2023/03/22 10:30:18;;;;;;;21.13;14.43;;;;;;;;;;10385425;28;20636;-70
2023/03/22 10:35:18;;;;;;;18.98;12.52;;;;;;;;;;10367608;28;20280;-70
2023/03/22 10:40:20;;;;;;;18.00;12.03;;;;;;;;;;10385188;28;20048;-71
2023/03/22 10:45:22;;;;;;;13.98;9.57;;;;;;;;;;10384967;28;20037;-70
2023/03/22 10:50:27;;;;;;;13.10;8.70;;;;;;;;;;10384811;28;20080;-69
2023/03/22 10:55:27;;;;;;;7.95;5.32;;;;;;;;;;10384089;28;20037;-69
2023/03/22 11:00:27;;;;;;;8.70;5.57;;;;;;;;;;10384426;28;20033;-69
2023/03/22 11:05:28;;;;;;;11.50;7.30;;;;;;;;;;10384350;28;20108;-69
2023/03/22 11:10:31;;;;;;;11.65;8.15;;;;;;;;;;10365922;28;20044;-70
2023/03/22 11:15:33;;;;;;;8.27;6.13;;;;;;;;;;10383744;28;20397;-69
2023/03/22 11:20:34;;;;;;;10.85;6.13;;;;;;;;;;10383954;28;20033;-70
2023/03/22 11:25:35;;;;;;;9.13;6.20;;;;;;;;;;10383713;28;20416;-70
2023/03/22 11:30:36;;;;;;;10.10;7.05;;;;;;;;;;10379671;28;20046;-69
2023/03/22 11:35:37;;;;;;;14.68;7.35;;;;;;;;;;10339840;28;20044;-69
2023/03/22 11:40:47;;;;;;;14.77;6.95;;;;;;;;;;10345423;28;20045;-70
2023/03/22 11:45:49;;;;;;;10.10;5.65;;;;;;;;;;10382946;28;20039;-69
2023/03/22 11:50:51;;;;;;;13.43;6.57;;;;;;;;;;10344453;28;20037;-70
2023/03/22 11:55:54;;;;;;;9.63;6.28;;;;;;;;;;10347175;28;20144;-70
2023/03/22 12:00:57;;;;;;;11.40;7.20;;;;;;;;;;10382405;28;20694;-69
2023/03/22 12:06:00;;;;;;;12.38;7.90;;;;;;;;;;10381888;28;20504;-69
2023/03/22 12:11:05;;;;;;;12.30;6.63;;;;;;;;;;10381342;28;20029;-70
2023/03/22 12:16:06;;;;;;;11.05;6.57;;;;;;;;;;10381089;28;20449;-68
2023/03/22 12:21:08;;;;;;;9.65;6.90;;;;;;;;;;10363777;28;20041;-70
2023/03/22 12:26:14;;;;;;;13.32;7.03;;;;;;;;;;10381438;28;20044;-70
2023/03/22 12:31:18;;;;;;;16.25;5.97;;;;;;;;;;10380827;28;20103;-70
2023/03/22 12:36:45;;;;;;;7.90;6.07;;;;;;;;;;10381209;28;20049;-69
2023/03/22 12:41:46;;;;;;;7.35;4.47;;;;;;;;;;10376543;28;20044;-70
2023/03/22 12:46:49;;;;;;;7.00;4.80;;;;;;;;;;10380784;28;20088;-71
2023/03/22 12:51:51;;;;;;;10.43;4.75;;;;;;;;;;10380223;28;20030;-70
2023/03/22 12:56:51;;;;;;;8.73;4.95;;;;;;;;;;10380847;28;20044;-71
2023/03/22 13:02:17;;;;;;;4.68;3.72;;;;;;;;;;10380322;28;20029;-71
2023/03/22 13:07:30;;;;;;;6.63;4.20;;;;;;;;;;10376090;28;20080;-71
2023/03/22 13:12:32;;;;;;;6.07;4.30;;;;;;;;;;10380006;28;20038;-69
2023/03/22 13:17:36;;;;;;;5.68;3.58;;;;;;;;;;10396677;28;20029;-69
2023/03/22 13:22:37;;;;;;;6.63;4.80;;;;;;;;;;10393581;28;20049;-70
2023/03/22 13:27:56;;;;;;;11.40;4.25;;;;;;;;;;10393012;28;20574;-69
2023/03/22 13:33:09;;;;;;;8.82;4.20;;;;;;;;;;10386668;28;20046;-70
2023/03/22 13:38:15;;;;;;;6.43;3.70;;;;;;;;;;10375948;28;20461;-70
2023/03/22 13:43:21;;;;;;;8.40;3.90;;;;;;;;;;10386080;28;20596;-70
2023/03/22 13:48:31;;;;;;;11.35;4.65;;;;;;;;;;10373385;28;20069;-70
2023/03/22 13:53:35;;;;;;;13.45;3.63;;;;;;;;;;10382372;28;20055;-71
2023/03/22 13:58:35;;;;;;;7.47;4.45;;;;;;;;;;10378668;28;20048;-72
2023/03/22 14:03:39;;;;;;;6.30;3.78;;;;;;;;;;10380923;28;20037;-70
2023/03/22 14:08:41;;;;;;;9.07;3.85;;;;;;;;;;10377759;28;20041;-72
2023/03/22 14:13:44;;;;;;;6.53;3.83;;;;;;;;;;10381403;28;20032;-69
2023/03/22 14:18:46;;;;;;;9.68;4.20;;;;;;;;;;10397176;28;20115;-70
2023/03/22 14:23:57;;;;;;;9.98;5.20;;;;;;;;;;10379480;28;20037;-72
2023/03/22 14:29:06;;;;;;;6.63;4.90;;;;;;;;;;10383943;28;20579;-72
2023/03/22 14:34:09;;;;;;;7.03;4.78;;;;;;;;;;10367353;28;20049;-71
2023/03/22 14:39:18;;;;;;;7.88;5.22;;;;;;;;;;10371289;28;20112;-70
2023/03/22 14:44:19;;;;;;;16.38;5.85;;;;;;;;;;10373665;28;20045;-70
2023/03/22 14:49:20;;;;;;;9.88;5.28;;;;;;;;;;10373053;28;20778;-70
2023/03/22 14:54:25;;;;;;;13.07;5.50;;;;;;;;;;10372784;28;20454;-70
2023/03/22 14:59:25;;;;;;;8.35;5.40;;;;;;;;;;10371953;28;20041;-71
2023/03/22 15:04:26;;;;;;;10.98;6.35;;;;;;;;;;10369107;28;20048;-71
2023/03/22 15:09:26;;;;;;;10.50;5.80;;;;;;;;;;10368189;28;20507;-71
2023/03/22 15:14:32;;;;;;;12.13;7.25;;;;;;;;;;10366956;28;20048;-71
2023/03/22 15:19:37;;;;;;;12.43;7.93;;;;;;;;;;10366475;28;20049;-71
2023/03/22 15:24:38;;;;;;;12.20;6.82;;;;;;;;;;10381002;28;20045;-73
2023/03/22 15:29:42;;;;;;;22.13;7.97;;;;;;;;;;10381864;28;20124;-71
2023/03/22 15:34:42;;;;;;;16.00;8.52;;;;;;;;;;10363099;28;20411;-72
2023/03/22 15:39:43;;;;;;;15.30;8.30;;;;;;;;;;10373394;28;20037;-72
2023/03/22 15:44:52;;;;;;;12.63;7.28;;;;;;;;;;10381288;28;20037;-73
2023/03/22 15:49:54;;;;;;;13.27;7.75;;;;;;;;;;10382985;28;20741;-72
2023/03/22 15:54:58;;;;;;;16.23;9.05;;;;;;;;;;10382747;28;20689;-72
2023/03/22 15:59:58;;;;;;;14.60;8.02;;;;;;;;;;10382810;28;20030;-72
2023/03/22 16:04:59;;;;;;;12.82;7.78;;;;;;;;;;10356105;28;20397;-75
2023/03/22 16:09:59;;;;;;;18.23;7.88;;;;;;;;;;10341019;28;20065;-73
2023/03/22 16:15:00;;;;;;;12.73;7.70;;;;;;;;;;10368901;28;20737;-70
2023/03/22 16:20:00;;;;;;;13.98;7.25;;;;;;;;;;10369775;28;20091;-73
2023/03/22 16:25:00;;;;;;;16.40;7.53;;;;;;;;;;10382565;28;20747;-72
2023/03/22 16:30:01;;;;;;;22.95;10.45;;;;;;;;;;10381022;28;20041;-73
2023/03/22 16:35:01;;;;;;;22.93;11.13;;;;;;;;;;10380286;28;20431;-72
2023/03/22 16:40:02;;;;;;;18.70;11.43;;;;;;;;;;10380119;28;20067;-71
2023/03/22 16:45:06;;;;;;;24.70;11.80;;;;;;;;;;10378370;28;20499;-71
2023/03/22 16:50:06;;;;;;;22.23;11.88;;;;;;;;;;10392882;28;20468;-70
2023/03/22 16:55:30;;;;;;;31.98;14.43;;;;;;;;;;10369365;28;20040;-70
2023/03/22 17:00:30;;;;;;;23.30;12.88;;;;;;;;;;10327635;28;20717;-71
2023/03/22 17:05:32;;;;;;;42.00;17.97;;;;;;;;;;10339168;28;20041;-71
2023/03/22 17:10:32;;;;;;;37.75;16.02;;;;;;;;;;10378753;28;20040;-71
2023/03/22 17:15:42;;;;;;;30.77;15.52;;;;;;;;;;10380843;28;20040;-72
2023/03/22 17:20:44;;;;;;;43.42;17.25;;;;;;;;;;10379387;28;20037;-72
2023/03/22 17:25:51;;;;;;;31.05;15.57;;;;;;;;;;10380216;28;20481;-71
2023/03/22 17:30:51;;;;;;;33.42;17.40;;;;;;;;;;10378608;28;20361;-75
2023/03/22 17:35:51;;;;;;;32.40;14.33;;;;;;;;;;10377945;28;20030;-74
2023/03/22 17:40:52;;;;;;;48.42;18.35;;;;;;;;;;10376333;28;20797;-73
2023/03/22 17:45:52;;;;;;;44.00;15.83;;;;;;;;;;10378737;28;20467;-79
2023/03/22 17:50:52;;;;;;;24.27;13.48;;;;;;;;;;10377411;28;20341;-71
2023/03/22 17:55:52;;;;;;;27.07;13.53;;;;;;;;;;10374432;28;20041;-71
2023/03/22 18:00:53;;;;;;;33.60;15.13;;;;;;;;;;10354124;28;20481;-71
2023/03/22 18:05:53;;;;;;;26.17;14.35;;;;;;;;;;10377512;28;20029;-72
2023/03/22 18:10:54;;;;;;;29.53;15.87;;;;;;;;;;10374213;28;20060;-72
2023/03/22 18:15:54;;;;;;;31.92;16.98;;;;;;;;;;10376906;28;20060;-74
2023/03/22 18:20:59;;;;;;;40.83;15.97;;;;;;;;;;10375857;28;20060;-72
2023/03/22 18:26:01;;;;;;;39.85;16.85;;;;;;;;;;10378741;28;20041;-72
2023/03/22 18:31:02;;;;;;;36.03;18.25;;;;;;;;;;10377410;28;20128;-72
2023/03/22 18:36:02;;;;;;;38.07;19.33;;;;;;;;;;10378657;28;20034;-72
2023/03/22 18:41:07;;;;;;;44.40;20.20;;;;;;;;;;10376763;28;20022;-71
2023/03/22 18:46:11;;;;;;;32.45;18.33;;;;;;;;;;10375962;28;20026;-71
2023/03/22 18:51:11;;;;;;;39.30;18.63;;;;;;;;;;10374939;28;20037;-73
2023/03/22 18:56:11;;;;;;;37.13;19.70;;;;;;;;;;10375893;28;20029;-72
2023/03/22 19:01:12;;;;;;;46.53;18.88;;;;;;;;;;10375024;28;20025;-72
2023/03/22 19:06:14;;;;;;;45.23;22.40;;;;;;;;;;10357822;28;20029;-72
2023/03/22 19:11:15;;;;;;;34.95;19.35;;;;;;;;;;10375028;28;20099;-73
2023/03/22 19:16:17;;;;;;;47.85;20.80;;;;;;;;;;10371381;28;20083;-72
2023/03/22 19:21:17;;;;;;;42.42;19.95;;;;;;;;;;10361875;28;20153;-72
2023/03/22 19:26:18;;;;;;;38.37;21.17;;;;;;;;;;10368316;28;20052;-72
2023/03/22 19:31:18;;;;;;;39.72;19.77;;;;;;;;;;10365189;28;20530;-72
2023/03/22 19:36:18;;;;;;;42.08;19.40;;;;;;;;;;10352067;28;20103;-72
2023/03/22 19:41:19;;;;;;;33.67;19.50;;;;;;;;;;10377345;28;20091;-73
2023/03/22 19:46:19;;;;;;;39.15;21.58;;;;;;;;;;10374176;28;20017;-72
2023/03/22 19:51:20;;;;;;;31.00;17.70;;;;;;;;;;10379293;28;20037;-75
2023/03/22 19:56:20;;;;;;;33.85;18.92;;;;;;;;;;10386672;28;20105;-78
2023/03/22 20:01:21;;;;;;;32.70;16.90;;;;;;;;;;10358505;28;20029;-81
2023/03/22 20:06:21;;;;;;;39.63;17.63;;;;;;;;;;10378002;28;20647;-73
2023/03/22 20:11:21;;;;;;;52.03;22.17;;;;;;;;;;10372876;28;20032;-72
2023/03/22 20:16:21;;;;;;;39.75;20.05;;;;;;;;;;10372356;28;20265;-72
2023/03/22 20:21:22;;;;;;;47.22;19.98;;;;;;;;;;10376030;28;20022;-74
2023/03/22 20:26:23;;;;;;;45.10;22.08;;;;;;;;;;10381685;28;20041;-82
2023/03/22 20:31:23;;;;;;;51.80;22.58;;;;;;;;;;10370362;28;20715;-77
2023/03/22 20:36:27;;;;;;;43.23;21.33;;;;;;;;;;10374872;28;20045;-90
2023/03/22 20:41:27;;;;;;;27.42;14.95;;;;;;;;;;10371389;28;20033;-79
2023/03/22 20:46:30;;;;;;;24.40;13.32;;;;;;;;;;10384248;28;20102;-83
2023/03/22 20:51:32;;;;;;;30.10;14.18;;;;;;;;;;10366845;28;20033;-81
2023/03/22 20:56:32;;;;;;;29.65;14.88;;;;;;;;;;10381595;28;20507;-82
2023/03/22 21:01:32;;;;;;;25.43;14.50;;;;;;;;;;10377673;28;20426;-76
2023/03/22 21:06:34;;;;;;;28.35;14.18;;;;;;;;;;10381173;28;20034;-87
2023/03/22 21:11:35;;;;;;;34.03;15.82;;;;;;;;;;10363038;28;20033;-81
2023/03/22 21:16:36;;;;;;;32.50;15.52;;;;;;;;;;10376351;28;20052;-81
2023/03/22 21:21:37;;;;;;;35.13;17.83;;;;;;;;;;10364694;28;20419;-82
2023/03/22 21:26:37;;;;;;;27.13;16.20;;;;;;;;;;10381364;28;20410;-85
2023/03/22 21:31:40;;;;;;;41.20;18.35;;;;;;;;;;10364497;28;20053;-82
2023/03/22 21:36:40;;;;;;;34.85;17.52;;;;;;;;;;10379764;28;20044;-80
2023/03/22 21:41:41;;;;;;;29.80;16.17;;;;;;;;;;10387271;28;20025;-81
2023/03/22 21:46:45;;;;;;;28.70;16.10;;;;;;;;;;10371668;28;20036;-88
2023/03/22 21:51:46;;;;;;;32.88;16.02;;;;;;;;;;10397480;28;20377;-91
2023/03/22 21:56:47;;;;;;;33.40;16.08;;;;;;;;;;10369890;28;20033;-75
2023/03/22 22:01:49;;;;;;;33.47;15.37;;;;;;;;;;10380064;28;20041;-77
2023/03/22 22:06:50;;;;;;;30.15;15.00;;;;;;;;;;10383845;28;20155;-72
2023/03/22 22:11:50;;;;;;;26.13;14.43;;;;;;;;;;10385748;28;20037;-72
2023/03/22 22:16:50;;;;;;;29.55;15.38;;;;;;;;;;10380530;28;20283;-72
2023/03/22 22:21:51;;;;;;;34.75;19.10;;;;;;;;;;10378311;28;20077;-74
2023/03/22 22:26:52;;;;;;;30.90;16.77;;;;;;;;;;10385715;28;20578;-73
2023/03/22 22:31:52;;;;;;;35.65;17.35;;;;;;;;;;10375489;28;20159;-74
2023/03/22 22:36:56;;;;;;;37.13;16.93;;;;;;;;;;10384848;28;20037;-73
2023/03/22 22:41:56;;;;;;;45.88;20.08;;;;;;;;;;10376129;28;20112;-74
2023/03/22 22:46:56;;;;;;;65.95;29.27;;;;;;;;;;10383237;28;20413;-74
2023/03/22 22:51:56;;;;;;;79.10;36.60;;;;;;;;;;10377893;28;20496;-74
2023/03/22 22:56:57;;;;;;;84.93;37.55;;;;;;;;;;10380918;28;20437;-74
2023/03/22 23:01:57;;;;;;;76.18;38.03;;;;;;;;;;10363478;28;20041;-74
2023/03/22 23:06:57;;;;;;;80.72;38.15;;;;;;;;;;10373807;28;20496;-73
2023/03/22 23:11:58;;;;;;;104.30;47.03;;;;;;;;;;10381494;28;20064;-73
2023/03/22 23:16:59;;;;;;;108.05;45.75;;;;;;;;;;10383589;28;20228;-74
2023/03/22 23:33:15;;;;;;;115.97;46.08;;;;;;;;;;10367787;28;20041;-73
2023/03/22 23:49:31;;;;;;;188.95;47.47;;;;;;;;;;10375740;28;20454;-74
2023/03/22 23:54:32;;;;;;;155.35;37.38;;;;;;;;;;10364229;28;20025;-74
2023/03/22 23:59:32;;;;;;;132.07;37.25;;;;;;;;;;10381631;28;20110;-72
